sensor_id;sensor_type;location;lat;lon;timestamp;P1;durP1;ratioP1;P2;durP2;ratioP2
71975;SDS011;68326;52.124;5.424;2024-03-08T00:00:16;23.58;;;8.60;;
71975;SDS011;68326;52.124;5.424;2024-03-08T00:02:47;23.80;;;9.00;;
71975;SDS011;68326;52.124;5.424;2024-03-08T00:05:17;26.43;;;9.37;;
71975;SDS011;68326;52.124;5.424;2024-03-08T00:07:44;22.75;;;8.30;;
71975;SDS011;68326;52.124;5.424;2024-03-08T00:10:11;22.50;;;8.52;;
71975;SDS011;68326;52.124;5.424;2024-03-08T00:12:41;22.83;;;8.70;;
71975;SDS011;68326;52.124;5.424;2024-03-08T00:17:41;21.30;;;8.20;;
71975;SDS011;68326;52.124;5.424;2024-03-08T00:20:09;18.30;;;8.35;;
71975;SDS011;68326;52.124;5.424;2024-03-08T00:22:36;25.23;;;9.98;;
71975;SDS011;68326;52.124;5.424;2024-03-08T00:25:04;22.08;;;8.75;;
71975;SDS011;68326;52.124;5.424;2024-03-08T00:27:35;22.60;;;8.50;;
71975;SDS011;68326;52.124;5.424;2024-03-08T00:30:02;21.23;;;8.43;;
71975;SDS011;68326;52.124;5.424;2024-03-08T00:32:29;23.63;;;8.68;;
71975;SDS011;68326;52.124;5.424;2024-03-08T00:34:57;24.25;;;9.10;;
71975;SDS011;68326;52.124;5.424;2024-03-08T00:37:23;23.63;;;8.27;;
71975;SDS011;68326;52.124;5.424;2024-03-08T00:39:51;25.77;;;8.70;;
71975;SDS011;68326;52.124;5.424;2024-03-08T00:42:18;24.23;;;8.43;;
71975;SDS011;68326;52.124;5.424;2024-03-08T00:44:46;21.02;;;8.70;;
71975;SDS011;68326;52.124;5.424;2024-03-08T00:47:14;23.73;;;9.15;;
71975;SDS011;68326;52.124;5.424;2024-03-08T00:49:41;22.48;;;9.27;;
71975;SDS011;68326;52.124;5.424;2024-03-08T00:52:08;23.83;;;8.88;;
71975;SDS011;68326;52.124;5.424;2024-03-08T00:54:35;22.30;;;8.43;;
71975;SDS011;68326;52.124;5.424;2024-03-08T00:57:04;20.88;;;8.32;;
71975;SDS011;68326;52.124;5.424;2024-03-08T00:59:33;21.48;;;8.30;;
71975;SDS011;68326;52.124;5.424;2024-03-08T01:02:00;26.92;;;8.68;;
71975;SDS011;68326;52.124;5.424;2024-03-08T01:04:27;25.23;;;9.05;;
71975;SDS011;68326;52.124;5.424;2024-03-08T01:06:57;22.43;;;8.87;;
71975;SDS011;68326;52.124;5.424;2024-03-08T01:09:24;21.27;;;9.05;;
71975;SDS011;68326;52.124;5.424;2024-03-08T01:11:53;21.10;;;8.30;;
71975;SDS011;68326;52.124;5.424;2024-03-08T01:14:21;23.70;;;9.10;;
71975;SDS011;68326;52.124;5.424;2024-03-08T01:16:55;24.25;;;9.55;;
71975;SDS011;68326;52.124;5.424;2024-03-08T01:19:22;25.73;;;8.67;;
71975;SDS011;68326;52.124;5.424;2024-03-08T01:21:50;24.77;;;9.13;;
71975;SDS011;68326;52.124;5.424;2024-03-08T01:24:17;21.80;;;8.88;;
71975;SDS011;68326;52.124;5.424;2024-03-08T01:26:44;22.92;;;9.70;;
71975;SDS011;68326;52.124;5.424;2024-03-08T01:29:11;24.80;;;9.13;;
71975;SDS011;68326;52.124;5.424;2024-03-08T01:31:37;24.93;;;8.87;;
71975;SDS011;68326;52.124;5.424;2024-03-08T01:34:04;23.98;;;8.70;;
71975;SDS011;68326;52.124;5.424;2024-03-08T01:36:31;20.77;;;8.55;;
71975;SDS011;68326;52.124;5.424;2024-03-08T01:38:57;25.00;;;8.93;;
71975;SDS011;68326;52.124;5.424;2024-03-08T01:41:24;23.20;;;9.75;;
71975;SDS011;68326;52.124;5.424;2024-03-08T01:43:50;23.23;;;9.43;;
71975;SDS011;68326;52.124;5.424;2024-03-08T01:46:18;21.23;;;9.32;;
71975;SDS011;68326;52.124;5.424;2024-03-08T01:48:48;24.65;;;10.00;;
71975;SDS011;68326;52.124;5.424;2024-03-08T01:51:15;20.40;;;8.73;;
71975;SDS011;68326;52.124;5.424;2024-03-08T01:53:42;20.73;;;8.35;;
71975;SDS011;68326;52.124;5.424;2024-03-08T01:56:12;20.80;;;9.37;;
71975;SDS011;68326;52.124;5.424;2024-03-08T01:58:43;21.90;;;8.85;;
71975;SDS011;68326;52.124;5.424;2024-03-08T02:01:13;19.13;;;8.50;;
71975;SDS011;68326;52.124;5.424;2024-03-08T02:03:45;23.63;;;9.60;;
71975;SDS011;68326;52.124;5.424;2024-03-08T02:06:12;21.83;;;9.23;;
71975;SDS011;68326;52.124;5.424;2024-03-08T02:08:44;20.87;;;8.50;;
71975;SDS011;68326;52.124;5.424;2024-03-08T02:11:11;23.02;;;8.63;;
71975;SDS011;68326;52.124;5.424;2024-03-08T02:13:38;25.02;;;9.20;;
71975;SDS011;68326;52.124;5.424;2024-03-08T02:16:05;22.10;;;9.18;;
71975;SDS011;68326;52.124;5.424;2024-03-08T02:18:34;23.30;;;9.13;;
71975;SDS011;68326;52.124;5.424;2024-03-08T02:21:02;20.30;;;8.07;;
71975;SDS011;68326;52.124;5.424;2024-03-08T02:23:29;22.00;;;9.23;;
71975;SDS011;68326;52.124;5.424;2024-03-08T02:25:56;22.90;;;8.65;;
71975;SDS011;68326;52.124;5.424;2024-03-08T02:28:23;22.30;;;9.32;;
71975;SDS011;68326;52.124;5.424;2024-03-08T02:30:55;21.42;;;9.05;;
71975;SDS011;68326;52.124;5.424;2024-03-08T02:33:25;24.83;;;9.10;;
71975;SDS011;68326;52.124;5.424;2024-03-08T02:35:53;22.73;;;9.93;;
71975;SDS011;68326;52.124;5.424;2024-03-08T02:38:20;21.13;;;8.75;;
71975;SDS011;68326;52.124;5.424;2024-03-08T02:40:49;21.38;;;8.77;;
71975;SDS011;68326;52.124;5.424;2024-03-08T02:43:17;21.40;;;8.63;;
71975;SDS011;68326;52.124;5.424;2024-03-08T02:45:45;24.13;;;9.53;;
71975;SDS011;68326;52.124;5.424;2024-03-08T02:48:12;24.42;;;9.80;;
71975;SDS011;68326;52.124;5.424;2024-03-08T02:50:39;22.65;;;9.00;;
71975;SDS011;68326;52.124;5.424;2024-03-08T02:53:08;24.10;;;9.20;;
71975;SDS011;68326;52.124;5.424;2024-03-08T02:55:36;21.75;;;9.32;;
71975;SDS011;68326;52.124;5.424;2024-03-08T02:58:03;23.10;;;9.27;;
71975;SDS011;68326;52.124;5.424;2024-03-08T03:00:30;21.33;;;8.60;;
71975;SDS011;68326;52.124;5.424;2024-03-08T03:02:57;23.45;;;9.23;;
71975;SDS011;68326;52.124;5.424;2024-03-08T03:05:24;19.58;;;9.15;;
71975;SDS011;68326;52.124;5.424;2024-03-08T03:07:50;19.17;;;8.82;;
71975;SDS011;68326;52.124;5.424;2024-03-08T03:10:17;24.13;;;9.57;;
71975;SDS011;68326;52.124;5.424;2024-03-08T03:12:45;21.90;;;9.35;;
71975;SDS011;68326;52.124;5.424;2024-03-08T03:15:12;19.92;;;8.52;;
71975;SDS011;68326;52.124;5.424;2024-03-08T03:17:40;20.10;;;9.27;;
71975;SDS011;68326;52.124;5.424;2024-03-08T03:20:07;23.35;;;9.50;;
71975;SDS011;68326;52.124;5.424;2024-03-08T03:22:40;24.83;;;9.90;;
71975;SDS011;68326;52.124;5.424;2024-03-08T03:25:07;23.95;;;10.30;;
71975;SDS011;68326;52.124;5.424;2024-03-08T03:27:35;21.75;;;9.02;;
71975;SDS011;68326;52.124;5.424;2024-03-08T03:30:03;23.73;;;9.23;;
71975;SDS011;68326;52.124;5.424;2024-03-08T03:32:48;21.50;;;8.82;;
71975;SDS011;68326;52.124;5.424;2024-03-08T03:35:16;22.97;;;8.93;;
71975;SDS011;68326;52.124;5.424;2024-03-08T03:37:43;19.10;;;8.98;;
71975;SDS011;68326;52.124;5.424;2024-03-08T03:40:30;24.15;;;8.95;;
71975;SDS011;68326;52.124;5.424;2024-03-08T03:42:57;22.85;;;9.68;;
71975;SDS011;68326;52.124;5.424;2024-03-08T03:45:24;21.27;;;9.32;;
71975;SDS011;68326;52.124;5.424;2024-03-08T03:47:50;23.20;;;9.53;;
71975;SDS011;68326;52.124;5.424;2024-03-08T03:50:18;22.35;;;9.32;;
71975;SDS011;68326;52.124;5.424;2024-03-08T03:52:45;22.23;;;9.57;;
71975;SDS011;68326;52.124;5.424;2024-03-08T03:55:13;24.50;;;9.77;;
71975;SDS011;68326;52.124;5.424;2024-03-08T03:57:40;20.63;;;9.38;;
71975;SDS011;68326;52.124;5.424;2024-03-08T04:00:07;21.23;;;9.40;;
71975;SDS011;68326;52.124;5.424;2024-03-08T04:02:37;22.83;;;9.55;;
71975;SDS011;68326;52.124;5.424;2024-03-08T04:05:08;21.70;;;9.38;;
71975;SDS011;68326;52.124;5.424;2024-03-08T04:07:36;26.40;;;9.70;;
71975;SDS011;68326;52.124;5.424;2024-03-08T04:10:03;22.42;;;9.15;;
71975;SDS011;68326;52.124;5.424;2024-03-08T04:12:35;25.47;;;9.73;;
71975;SDS011;68326;52.124;5.424;2024-03-08T04:15:01;22.48;;;9.75;;
71975;SDS011;68326;52.124;5.424;2024-03-08T04:17:28;22.13;;;9.63;;
71975;SDS011;68326;52.124;5.424;2024-03-08T04:19:55;26.05;;;9.95;;
71975;SDS011;68326;52.124;5.424;2024-03-08T04:22:23;21.60;;;9.48;;
71975;SDS011;68326;52.124;5.424;2024-03-08T04:24:49;21.50;;;9.60;;
71975;SDS011;68326;52.124;5.424;2024-03-08T04:27:17;18.65;;;9.00;;
71975;SDS011;68326;52.124;5.424;2024-03-08T04:29:43;20.63;;;9.70;;
71975;SDS011;68326;52.124;5.424;2024-03-08T04:32:11;21.65;;;9.75;;
71975;SDS011;68326;52.124;5.424;2024-03-08T04:34:39;23.90;;;9.70;;
71975;SDS011;68326;52.124;5.424;2024-03-08T04:37:10;24.27;;;10.00;;
71975;SDS011;68326;52.124;5.424;2024-03-08T04:39:39;24.63;;;10.43;;
71975;SDS011;68326;52.124;5.424;2024-03-08T04:42:06;24.27;;;9.82;;
71975;SDS011;68326;52.124;5.424;2024-03-08T04:44:36;24.52;;;9.63;;
71975;SDS011;68326;52.124;5.424;2024-03-08T04:47:06;23.60;;;9.88;;
71975;SDS011;68326;52.124;5.424;2024-03-08T04:49:33;25.43;;;9.97;;
71975;SDS011;68326;52.124;5.424;2024-03-08T04:52:03;24.80;;;10.18;;
71975;SDS011;68326;52.124;5.424;2024-03-08T04:54:30;22.60;;;9.65;;
71975;SDS011;68326;52.124;5.424;2024-03-08T04:56:56;27.65;;;9.38;;
71975;SDS011;68326;52.124;5.424;2024-03-08T04:59:23;20.98;;;9.38;;
71975;SDS011;68326;52.124;5.424;2024-03-08T05:01:50;19.83;;;9.50;;
71975;SDS011;68326;52.124;5.424;2024-03-08T05:04:17;25.13;;;9.48;;
71975;SDS011;68326;52.124;5.424;2024-03-08T05:06:43;20.02;;;9.15;;
71975;SDS011;68326;52.124;5.424;2024-03-08T05:09:10;23.15;;;8.95;;
71975;SDS011;68326;52.124;5.424;2024-03-08T05:11:40;20.33;;;9.27;;
71975;SDS011;68326;52.124;5.424;2024-03-08T05:14:08;24.50;;;9.67;;
71975;SDS011;68326;52.124;5.424;2024-03-08T05:16:34;24.30;;;9.63;;
71975;SDS011;68326;52.124;5.424;2024-03-08T05:19:01;23.05;;;9.43;;
71975;SDS011;68326;52.124;5.424;2024-03-08T05:21:28;24.70;;;9.57;;
71975;SDS011;68326;52.124;5.424;2024-03-08T05:23:55;24.92;;;10.52;;
71975;SDS011;68326;52.124;5.424;2024-03-08T05:26:21;23.63;;;9.50;;
71975;SDS011;68326;52.124;5.424;2024-03-08T05:28:51;21.98;;;9.63;;
71975;SDS011;68326;52.124;5.424;2024-03-08T05:31:18;26.55;;;9.70;;
71975;SDS011;68326;52.124;5.424;2024-03-08T05:33:51;26.00;;;9.77;;
71975;SDS011;68326;52.124;5.424;2024-03-08T05:36:17;28.00;;;11.10;;
71975;SDS011;68326;52.124;5.424;2024-03-08T05:38:44;24.57;;;10.37;;
71975;SDS011;68326;52.124;5.424;2024-03-08T05:41:11;24.67;;;10.27;;
71975;SDS011;68326;52.124;5.424;2024-03-08T05:43:41;21.40;;;9.73;;
71975;SDS011;68326;52.124;5.424;2024-03-08T05:46:08;24.00;;;9.30;;
71975;SDS011;68326;52.124;5.424;2024-03-08T05:48:34;24.65;;;9.85;;
71975;SDS011;68326;52.124;5.424;2024-03-08T05:51:01;24.00;;;10.63;;
71975;SDS011;68326;52.124;5.424;2024-03-08T05:53:28;24.20;;;9.57;;
71975;SDS011;68326;52.124;5.424;2024-03-08T05:55:58;27.55;;;9.90;;
71975;SDS011;68326;52.124;5.424;2024-03-08T05:58:25;25.95;;;10.52;;
71975;SDS011;68326;52.124;5.424;2024-03-08T06:00:52;21.20;;;9.48;;
71975;SDS011;68326;52.124;5.424;2024-03-08T06:03:19;23.60;;;10.17;;
71975;SDS011;68326;52.124;5.424;2024-03-08T06:05:48;22.48;;;10.20;;
71975;SDS011;68326;52.124;5.424;2024-03-08T06:08:15;21.30;;;9.80;;
71975;SDS011;68326;52.124;5.424;2024-03-08T06:10:42;23.45;;;10.32;;
71975;SDS011;68326;52.124;5.424;2024-03-08T06:13:09;25.15;;;10.27;;
71975;SDS011;68326;52.124;5.424;2024-03-08T06:15:38;22.70;;;10.03;;
71975;SDS011;68326;52.124;5.424;2024-03-08T06:18:05;21.45;;;9.93;;
71975;SDS011;68326;52.124;5.424;2024-03-08T06:20:32;21.42;;;9.10;;
71975;SDS011;68326;52.124;5.424;2024-03-08T06:22:59;24.27;;;9.45;;
71975;SDS011;68326;52.124;5.424;2024-03-08T06:25:25;24.02;;;10.52;;
71975;SDS011;68326;52.124;5.424;2024-03-08T06:27:54;23.97;;;9.50;;
71975;SDS011;68326;52.124;5.424;2024-03-08T06:30:21;22.52;;;8.95;;
71975;SDS011;68326;52.124;5.424;2024-03-08T06:32:48;22.45;;;10.57;;
71975;SDS011;68326;52.124;5.424;2024-03-08T06:35:15;22.13;;;9.63;;
71975;SDS011;68326;52.124;5.424;2024-03-08T06:37:42;24.20;;;10.45;;
71975;SDS011;68326;52.124;5.424;2024-03-08T06:40:10;27.17;;;10.43;;
71975;SDS011;68326;52.124;5.424;2024-03-08T06:42:40;23.85;;;9.40;;
71975;SDS011;68326;52.124;5.424;2024-03-08T06:45:07;23.27;;;9.68;;
71975;SDS011;68326;52.124;5.424;2024-03-08T06:47:36;24.10;;;10.43;;
71975;SDS011;68326;52.124;5.424;2024-03-08T06:50:03;23.38;;;9.70;;
71975;SDS011;68326;52.124;5.424;2024-03-08T06:52:30;22.10;;;10.10;;
71975;SDS011;68326;52.124;5.424;2024-03-08T06:54:56;24.80;;;11.52;;
71975;SDS011;68326;52.124;5.424;2024-03-08T06:57:23;24.25;;;10.10;;
71975;SDS011;68326;52.124;5.424;2024-03-08T06:59:50;23.65;;;10.00;;
71975;SDS011;68326;52.124;5.424;2024-03-08T07:02:18;21.60;;;10.05;;
71975;SDS011;68326;52.124;5.424;2024-03-08T07:04:45;25.93;;;10.77;;
71975;SDS011;68326;52.124;5.424;2024-03-08T07:07:11;23.38;;;10.57;;
71975;SDS011;68326;52.124;5.424;2024-03-08T07:09:38;24.70;;;10.73;;
71975;SDS011;68326;52.124;5.424;2024-03-08T07:12:05;22.70;;;10.63;;
71975;SDS011;68326;52.124;5.424;2024-03-08T07:14:32;24.85;;;9.38;;
71975;SDS011;68326;52.124;5.424;2024-03-08T07:16:59;24.27;;;10.20;;
71975;SDS011;68326;52.124;5.424;2024-03-08T07:19:27;24.55;;;10.90;;
71975;SDS011;68326;52.124;5.424;2024-03-08T07:21:53;28.60;;;10.95;;
71975;SDS011;68326;52.124;5.424;2024-03-08T07:24:21;23.17;;;10.75;;
71975;SDS011;68326;52.124;5.424;2024-03-08T07:27:04;27.55;;;10.93;;
71975;SDS011;68326;52.124;5.424;2024-03-08T07:29:32;23.83;;;10.50;;
71975;SDS011;68326;52.124;5.424;2024-03-08T07:31:59;23.92;;;11.07;;
71975;SDS011;68326;52.124;5.424;2024-03-08T07:34:45;21.08;;;10.65;;
71975;SDS011;68326;52.124;5.424;2024-03-08T07:37:11;21.45;;;10.18;;
71975;SDS011;68326;52.124;5.424;2024-03-08T07:39:38;27.52;;;11.05;;
71975;SDS011;68326;52.124;5.424;2024-03-08T07:42:05;25.10;;;10.80;;
71975;SDS011;68326;52.124;5.424;2024-03-08T07:44:32;20.90;;;9.68;;
71975;SDS011;68326;52.124;5.424;2024-03-08T07:46:58;24.27;;;10.63;;
71975;SDS011;68326;52.124;5.424;2024-03-08T07:49:25;25.15;;;11.50;;
71975;SDS011;68326;52.124;5.424;2024-03-08T07:51:52;25.13;;;10.73;;
71975;SDS011;68326;52.124;5.424;2024-03-08T07:54:18;23.30;;;10.37;;
71975;SDS011;68326;52.124;5.424;2024-03-08T07:56:45;24.13;;;10.80;;
71975;SDS011;68326;52.124;5.424;2024-03-08T07:59:11;25.30;;;10.85;;
71975;SDS011;68326;52.124;5.424;2024-03-08T08:01:38;24.58;;;10.60;;
71975;SDS011;68326;52.124;5.424;2024-03-08T08:04:04;24.13;;;11.27;;
71975;SDS011;68326;52.124;5.424;2024-03-08T08:06:31;22.73;;;11.57;;
71975;SDS011;68326;52.124;5.424;2024-03-08T08:09:01;29.23;;;11.75;;
71975;SDS011;68326;52.124;5.424;2024-03-08T08:11:27;24.42;;;11.60;;
71975;SDS011;68326;52.124;5.424;2024-03-08T08:13:55;24.55;;;11.10;;
71975;SDS011;68326;52.124;5.424;2024-03-08T08:16:24;23.50;;;10.93;;
71975;SDS011;68326;52.124;5.424;2024-03-08T08:18:52;26.67;;;11.97;;
71975;SDS011;68326;52.124;5.424;2024-03-08T08:21:19;24.15;;;11.43;;
71975;SDS011;68326;52.124;5.424;2024-03-08T08:23:45;25.55;;;11.80;;
71975;SDS011;68326;52.124;5.424;2024-03-08T08:26:12;24.80;;;11.68;;
71975;SDS011;68326;52.124;5.424;2024-03-08T08:28:39;23.42;;;10.38;;
71975;SDS011;68326;52.124;5.424;2024-03-08T08:31:07;22.87;;;10.37;;
71975;SDS011;68326;52.124;5.424;2024-03-08T08:33:34;22.75;;;11.30;;
71975;SDS011;68326;52.124;5.424;2024-03-08T08:36:01;26.38;;;11.65;;
71975;SDS011;68326;52.124;5.424;2024-03-08T08:38:29;22.67;;;11.18;;
71975;SDS011;68326;52.124;5.424;2024-03-08T08:40:56;26.73;;;12.00;;
71975;SDS011;68326;52.124;5.424;2024-03-08T08:43:22;24.10;;;11.60;;
71975;SDS011;68326;52.124;5.424;2024-03-08T08:45:51;26.33;;;11.63;;
71975;SDS011;68326;52.124;5.424;2024-03-08T08:48:20;24.23;;;11.52;;
71975;SDS011;68326;52.124;5.424;2024-03-08T08:50:47;24.65;;;11.20;;
71975;SDS011;68326;52.124;5.424;2024-03-08T08:53:14;23.73;;;10.75;;
71975;SDS011;68326;52.124;5.424;2024-03-08T08:55:41;22.57;;;10.90;;
71975;SDS011;68326;52.124;5.424;2024-03-08T08:58:07;24.02;;;10.52;;
71975;SDS011;68326;52.124;5.424;2024-03-08T09:00:34;23.25;;;10.85;;
71975;SDS011;68326;52.124;5.424;2024-03-08T09:03:00;24.17;;;11.40;;
71975;SDS011;68326;52.124;5.424;2024-03-08T09:05:28;24.15;;;11.63;;
71975;SDS011;68326;52.124;5.424;2024-03-08T09:07:55;22.27;;;11.20;;
71975;SDS011;68326;52.124;5.424;2024-03-08T09:10:22;30.83;;;12.23;;
71975;SDS011;68326;52.124;5.424;2024-03-08T09:12:55;24.10;;;11.05;;
71975;SDS011;68326;52.124;5.424;2024-03-08T09:15:21;27.65;;;11.48;;
71975;SDS011;68326;52.124;5.424;2024-03-08T09:17:53;28.15;;;13.00;;
71975;SDS011;68326;52.124;5.424;2024-03-08T09:20:20;23.90;;;12.40;;
71975;SDS011;68326;52.124;5.424;2024-03-08T09:22:47;20.67;;;11.32;;
71975;SDS011;68326;52.124;5.424;2024-03-08T09:25:13;23.58;;;10.95;;
71975;SDS011;68326;52.124;5.424;2024-03-08T09:27:40;23.75;;;10.82;;
71975;SDS011;68326;52.124;5.424;2024-03-08T09:30:07;23.13;;;12.43;;
71975;SDS011;68326;52.124;5.424;2024-03-08T09:32:34;28.80;;;13.43;;
71975;SDS011;68326;52.124;5.424;2024-03-08T09:35:01;25.23;;;11.25;;
71975;SDS011;68326;52.124;5.424;2024-03-08T09:37:28;19.95;;;10.68;;
71975;SDS011;68326;52.124;5.424;2024-03-08T09:39:54;23.40;;;11.10;;
71975;SDS011;68326;52.124;5.424;2024-03-08T09:42:21;22.08;;;11.88;;
71975;SDS011;68326;52.124;5.424;2024-03-08T09:44:48;27.70;;;13.97;;
71975;SDS011;68326;52.124;5.424;2024-03-08T09:47:15;24.45;;;11.13;;
71975;SDS011;68326;52.124;5.424;2024-03-08T09:49:42;22.63;;;11.18;;
71975;SDS011;68326;52.124;5.424;2024-03-08T09:52:09;24.73;;;11.82;;
71975;SDS011;68326;52.124;5.424;2024-03-08T09:54:39;26.33;;;12.13;;
71975;SDS011;68326;52.124;5.424;2024-03-08T09:57:06;23.57;;;11.13;;
71975;SDS011;68326;52.124;5.424;2024-03-08T09:59:35;23.23;;;10.63;;
71975;SDS011;68326;52.124;5.424;2024-03-08T10:02:04;23.83;;;10.77;;
71975;SDS011;68326;52.124;5.424;2024-03-08T10:04:31;22.38;;;11.60;;
71975;SDS011;68326;52.124;5.424;2024-03-08T10:07:00;23.83;;;11.45;;
71975;SDS011;68326;52.124;5.424;2024-03-08T10:09:27;23.17;;;12.10;;
71975;SDS011;68326;52.124;5.424;2024-03-08T10:11:57;22.95;;;10.95;;
71975;SDS011;68326;52.124;5.424;2024-03-08T10:14:26;22.02;;;11.52;;
71975;SDS011;68326;52.124;5.424;2024-03-08T10:16:53;23.58;;;11.50;;
71975;SDS011;68326;52.124;5.424;2024-03-08T10:19:26;22.55;;;10.77;;
71975;SDS011;68326;52.124;5.424;2024-03-08T10:21:56;24.40;;;11.60;;
71975;SDS011;68326;52.124;5.424;2024-03-08T10:24:23;19.55;;;10.90;;
71975;SDS011;68326;52.124;5.424;2024-03-08T10:26:58;23.52;;;11.45;;
71975;SDS011;68326;52.124;5.424;2024-03-08T10:29:31;23.40;;;12.07;;
71975;SDS011;68326;52.124;5.424;2024-03-08T10:31:58;19.58;;;9.80;;
71975;SDS011;68326;52.124;5.424;2024-03-08T10:34:25;19.17;;;9.27;;
71975;SDS011;68326;52.124;5.424;2024-03-08T10:36:52;19.20;;;10.27;;
71975;SDS011;68326;52.124;5.424;2024-03-08T10:41:58;22.42;;;10.70;;
71975;SDS011;68326;52.124;5.424;2024-03-08T10:44:48;20.42;;;10.90;;
71975;SDS011;68326;52.124;5.424;2024-03-08T10:47:26;21.20;;;10.30;;
71975;SDS011;68326;52.124;5.424;2024-03-08T10:50:09;21.55;;;10.88;;
71975;SDS011;68326;52.124;5.424;2024-03-08T10:52:39;20.52;;;10.30;;
71975;SDS011;68326;52.124;5.424;2024-03-08T10:55:08;19.55;;;10.40;;
71975;SDS011;68326;52.124;5.424;2024-03-08T10:57:39;21.10;;;10.52;;
71975;SDS011;68326;52.124;5.424;2024-03-08T11:00:07;19.93;;;10.97;;
71975;SDS011;68326;52.124;5.424;2024-03-08T11:02:37;23.08;;;11.02;;
71975;SDS011;68326;52.124;5.424;2024-03-08T11:05:04;20.90;;;10.98;;
71975;SDS011;68326;52.124;5.424;2024-03-08T11:07:34;19.77;;;10.02;;
71975;SDS011;68326;52.124;5.424;2024-03-08T11:10:04;20.08;;;9.95;;
71975;SDS011;68326;52.124;5.424;2024-03-08T11:12:37;18.27;;;10.20;;
71975;SDS011;68326;52.124;5.424;2024-03-08T11:15:10;21.10;;;9.88;;
71975;SDS011;68326;52.124;5.424;2024-03-08T11:20:11;19.70;;;10.38;;
71975;SDS011;68326;52.124;5.424;2024-03-08T11:22:52;17.67;;;9.95;;
71975;SDS011;68326;52.124;5.424;2024-03-08T11:25:39;20.60;;;10.60;;
71975;SDS011;68326;52.124;5.424;2024-03-08T11:28:16;19.13;;;9.45;;
71975;SDS011;68326;52.124;5.424;2024-03-08T11:33:28;19.85;;;10.55;;
71975;SDS011;68326;52.124;5.424;2024-03-08T11:36:11;16.42;;;9.13;;
71975;SDS011;68326;52.124;5.424;2024-03-08T11:41:16;19.42;;;9.38;;
71975;SDS011;68326;52.124;5.424;2024-03-08T11:43:47;15.40;;;8.93;;
71975;SDS011;68326;52.124;5.424;2024-03-08T11:46:15;16.30;;;8.80;;
71975;SDS011;68326;52.124;5.424;2024-03-08T11:48:43;19.92;;;9.75;;
71975;SDS011;68326;52.124;5.424;2024-03-08T11:51:14;16.50;;;8.90;;
71975;SDS011;68326;52.124;5.424;2024-03-08T11:53:41;18.60;;;9.13;;
71975;SDS011;68326;52.124;5.424;2024-03-08T11:56:13;14.38;;;7.90;;
71975;SDS011;68326;52.124;5.424;2024-03-08T11:58:40;26.30;;;12.77;;
71975;SDS011;68326;52.124;5.424;2024-03-08T12:01:08;15.40;;;8.25;;
71975;SDS011;68326;52.124;5.424;2024-03-08T12:03:38;13.48;;;7.95;;
71975;SDS011;68326;52.124;5.424;2024-03-08T12:06:11;14.82;;;9.18;;
71975;SDS011;68326;52.124;5.424;2024-03-08T12:08:39;14.65;;;8.07;;
71975;SDS011;68326;52.124;5.424;2024-03-08T12:11:06;16.27;;;8.38;;
71975;SDS011;68326;52.124;5.424;2024-03-08T12:13:33;14.90;;;8.80;;
71975;SDS011;68326;52.124;5.424;2024-03-08T12:16:04;13.50;;;8.25;;
71975;SDS011;68326;52.124;5.424;2024-03-08T12:18:37;12.80;;;7.82;;
71975;SDS011;68326;52.124;5.424;2024-03-08T12:21:05;15.43;;;8.10;;
71975;SDS011;68326;52.124;5.424;2024-03-08T12:23:34;15.95;;;8.43;;
71975;SDS011;68326;52.124;5.424;2024-03-08T12:28:42;14.27;;;7.82;;
71975;SDS011;68326;52.124;5.424;2024-03-08T12:31:14;14.25;;;8.10;;
71975;SDS011;68326;52.124;5.424;2024-03-08T12:33:52;14.85;;;8.02;;
71975;SDS011;68326;52.124;5.424;2024-03-08T12:36:23;13.70;;;7.32;;
71975;SDS011;68326;52.124;5.424;2024-03-08T12:38:49;13.65;;;6.72;;
71975;SDS011;68326;52.124;5.424;2024-03-08T12:41:20;15.15;;;8.25;;
71975;SDS011;68326;52.124;5.424;2024-03-08T12:43:47;16.42;;;8.27;;
71975;SDS011;68326;52.124;5.424;2024-03-08T12:46:17;12.95;;;8.00;;
71975;SDS011;68326;52.124;5.424;2024-03-08T12:48:56;16.92;;;8.48;;
71975;SDS011;68326;52.124;5.424;2024-03-08T12:51:22;14.30;;;8.18;;
71975;SDS011;68326;52.124;5.424;2024-03-08T12:53:50;16.03;;;8.13;;
71975;SDS011;68326;52.124;5.424;2024-03-08T12:56:29;15.57;;;8.00;;
71975;SDS011;68326;52.124;5.424;2024-03-08T12:58:57;15.18;;;8.00;;
71975;SDS011;68326;52.124;5.424;2024-03-08T13:01:23;14.25;;;7.72;;
71975;SDS011;68326;52.124;5.424;2024-03-08T13:03:50;14.77;;;7.72;;
71975;SDS011;68326;52.124;5.424;2024-03-08T13:06:17;12.97;;;6.97;;
71975;SDS011;68326;52.124;5.424;2024-03-08T13:08:43;15.90;;;8.18;;
71975;SDS011;68326;52.124;5.424;2024-03-08T13:11:10;16.88;;;8.60;;
71975;SDS011;68326;52.124;5.424;2024-03-08T13:13:40;14.70;;;8.02;;
71975;SDS011;68326;52.124;5.424;2024-03-08T13:16:07;17.45;;;8.40;;
71975;SDS011;68326;52.124;5.424;2024-03-08T13:18:35;15.73;;;8.40;;
71975;SDS011;68326;52.124;5.424;2024-03-08T13:21:02;17.40;;;9.23;;
71975;SDS011;68326;52.124;5.424;2024-03-08T13:23:33;15.45;;;8.45;;
71975;SDS011;68326;52.124;5.424;2024-03-08T13:26:07;16.63;;;9.00;;
71975;SDS011;68326;52.124;5.424;2024-03-08T13:28:36;16.23;;;8.20;;
71975;SDS011;68326;52.124;5.424;2024-03-08T13:31:06;18.37;;;8.40;;
71975;SDS011;68326;52.124;5.424;2024-03-08T13:33:33;14.23;;;8.00;;
71975;SDS011;68326;52.124;5.424;2024-03-08T13:36:03;16.63;;;8.55;;
71975;SDS011;68326;52.124;5.424;2024-03-08T13:38:34;15.07;;;7.43;;
71975;SDS011;68326;52.124;5.424;2024-03-08T13:41:02;17.13;;;8.18;;
71975;SDS011;68326;52.124;5.424;2024-03-08T13:43:32;16.33;;;7.63;;
71975;SDS011;68326;52.124;5.424;2024-03-08T13:46:01;18.05;;;8.88;;
71975;SDS011;68326;52.124;5.424;2024-03-08T13:48:28;15.23;;;8.60;;
71975;SDS011;68326;52.124;5.424;2024-03-08T13:50:55;17.65;;;8.30;;
71975;SDS011;68326;52.124;5.424;2024-03-08T13:53:23;15.45;;;8.43;;
71975;SDS011;68326;52.124;5.424;2024-03-08T13:55:52;17.50;;;8.60;;
71975;SDS011;68326;52.124;5.424;2024-03-08T13:58:19;15.68;;;8.18;;
71975;SDS011;68326;52.124;5.424;2024-03-08T14:00:46;15.70;;;8.82;;
71975;SDS011;68326;52.124;5.424;2024-03-08T14:03:14;15.98;;;8.35;;
71975;SDS011;68326;52.124;5.424;2024-03-08T14:05:40;14.82;;;7.85;;
71975;SDS011;68326;52.124;5.424;2024-03-08T14:08:09;17.00;;;8.80;;
71975;SDS011;68326;52.124;5.424;2024-03-08T14:10:38;16.77;;;8.82;;
71975;SDS011;68326;52.124;5.424;2024-03-08T14:13:05;17.05;;;8.18;;
71975;SDS011;68326;52.124;5.424;2024-03-08T14:15:33;18.23;;;8.35;;
71975;SDS011;68326;52.124;5.424;2024-03-08T14:18:07;17.25;;;8.40;;
71975;SDS011;68326;52.124;5.424;2024-03-08T14:20:34;15.32;;;8.25;;
71975;SDS011;68326;52.124;5.424;2024-03-08T14:23:01;16.40;;;8.98;;
71975;SDS011;68326;52.124;5.424;2024-03-08T14:25:31;17.08;;;9.43;;
71975;SDS011;68326;52.124;5.424;2024-03-08T14:27:58;17.35;;;8.95;;
71975;SDS011;68326;52.124;5.424;2024-03-08T14:30:28;16.17;;;8.63;;
71975;SDS011;68326;52.124;5.424;2024-03-08T14:33:02;17.45;;;8.98;;
71975;SDS011;68326;52.124;5.424;2024-03-08T14:35:29;16.45;;;8.68;;
71975;SDS011;68326;52.124;5.424;2024-03-08T14:37:56;16.55;;;9.25;;
71975;SDS011;68326;52.124;5.424;2024-03-08T14:40:24;16.83;;;9.18;;
71975;SDS011;68326;52.124;5.424;2024-03-08T14:42:52;21.25;;;8.95;;
71975;SDS011;68326;52.124;5.424;2024-03-08T14:45:18;17.63;;;8.60;;
71975;SDS011;68326;52.124;5.424;2024-03-08T14:47:46;16.77;;;9.43;;
71975;SDS011;68326;52.124;5.424;2024-03-08T14:50:19;15.05;;;8.13;;
71975;SDS011;68326;52.124;5.424;2024-03-08T14:52:46;14.88;;;8.65;;